createdAt,value
2024-04-24T00:02:57.986Z,1.10
2024-04-24T00:06:30.055Z,1.10
2024-04-24T00:08:58.580Z,0.80
2024-04-24T00:11:27.470Z,1.20
2024-04-24T00:13:58.970Z,1.10
2024-04-24T00:16:27.385Z,0.90
2024-04-24T00:19:15.655Z,1.10
2024-04-24T00:21:44.336Z,1.00
2024-04-24T00:24:16.974Z,1.40
2024-04-24T00:26:45.417Z,1.90
2024-04-24T00:29:13.655Z,1.70
2024-04-24T00:31:49.431Z,1.80
2024-04-24T00:34:18.137Z,1.50
2024-04-24T00:36:52.200Z,1.90
2024-04-24T00:39:22.988Z,1.50
2024-04-24T00:41:51.693Z,1.60
2024-04-24T00:45:20.257Z,1.80
2024-04-24T00:48:50.105Z,2.30
2024-04-24T00:51:42.430Z,1.20
2024-04-24T00:54:10.726Z,1.70
2024-04-24T00:56:39.995Z,1.10
2024-04-24T00:59:11.192Z,2.30
2024-04-24T01:01:39.970Z,1.40
2024-04-24T01:04:13.880Z,1.10
2024-04-24T01:06:42.143Z,1.40
2024-04-24T01:09:10.461Z,1.50
2024-04-24T01:11:38.639Z,1.90
2024-04-24T01:14:07.480Z,1.00
2024-04-24T01:16:41.000Z,1.20
2024-04-24T01:19:42.393Z,1.80
2024-04-24T01:22:28.280Z,1.70
2024-04-24T01:25:29.846Z,1.40
2024-04-24T01:28:18.149Z,1.20
2024-04-24T01:30:49.760Z,1.80
2024-04-24T01:33:21.411Z,1.30
2024-04-24T01:35:50.242Z,1.50
2024-04-24T01:38:21.534Z,0.90
2024-04-24T01:40:52.509Z,1.60
2024-04-24T01:43:40.961Z,1.90
2024-04-24T01:46:12.510Z,2.00
2024-04-24T01:48:43.710Z,2.80
2024-04-24T01:51:30.448Z,2.20
2024-04-24T01:54:01.774Z,3.70
2024-04-24T01:56:32.459Z,2.30
2024-04-24T01:59:01.056Z,2.50
2024-04-24T02:01:50.256Z,1.80
2024-04-24T02:06:49.267Z,2.00
2024-04-24T02:11:51.050Z,2.10
2024-04-24T02:14:24.870Z,2.00
2024-04-24T02:17:09.147Z,2.40
2024-04-24T02:19:42.477Z,2.40
2024-04-24T02:22:11.389Z,1.80
2024-04-24T02:25:07.650Z,1.90
2024-04-24T02:27:41.557Z,2.30
2024-04-24T02:30:16.199Z,2.10
2024-04-24T02:32:44.958Z,2.20
2024-04-24T02:35:22.019Z,2.00
2024-04-24T02:37:50.686Z,2.30
2024-04-24T02:40:21.626Z,1.80
2024-04-24T02:42:50.471Z,1.70
2024-04-24T02:45:21.808Z,2.40
2024-04-24T02:47:53.419Z,1.70
2024-04-24T02:50:22.147Z,1.60
2024-04-24T02:52:51.272Z,2.10
2024-04-24T02:55:25.163Z,2.10
2024-04-24T02:57:56.433Z,1.80
2024-04-24T03:00:27.474Z,2.00
2024-04-24T03:02:59.364Z,1.90
2024-04-24T03:05:28.350Z,1.90
2024-04-24T03:08:31.514Z,1.40
2024-04-24T03:11:00.182Z,2.00
2024-04-24T03:14:00.790Z,2.00
2024-04-24T03:16:35.307Z,2.00
2024-04-24T03:19:09.825Z,3.40
2024-04-24T03:21:44.048Z,2.50
2024-04-24T03:24:15.576Z,2.00
2024-04-24T03:27:01.225Z,2.10
2024-04-24T03:29:41.855Z,1.60
2024-04-24T03:32:10.690Z,1.90
2024-04-24T03:34:47.863Z,1.60
2024-04-24T03:37:36.749Z,1.50
2024-04-24T03:40:05.810Z,1.60
2024-04-24T03:42:45.208Z,1.90
2024-04-24T03:45:16.611Z,1.70
2024-04-24T03:47:45.015Z,2.20
2024-04-24T03:50:16.739Z,1.90
2024-04-24T03:52:48.207Z,1.80
2024-04-24T03:55:19.750Z,2.10
2024-04-24T03:57:50.303Z,2.60
2024-04-24T04:00:24.586Z,1.90
2024-04-24T04:02:53.005Z,1.80
2024-04-24T04:05:24.078Z,3.40
2024-04-24T04:10:29.947Z,3.10
2024-04-24T04:12:57.983Z,2.60
2024-04-24T04:15:26.175Z,3.20
2024-04-24T04:17:57.952Z,2.20
2024-04-24T04:20:26.902Z,4.10
2024-04-24T04:23:05.697Z,3.00
2024-04-24T04:25:34.586Z,3.10
2024-04-24T04:28:13.921Z,2.80
2024-04-24T04:30:42.184Z,2.30
2024-04-24T04:33:10.817Z,2.50
2024-04-24T04:35:39.364Z,2.60
2024-04-24T04:38:07.629Z,2.00
2024-04-24T04:40:38.368Z,3.70
2024-04-24T04:45:43.923Z,1.90
2024-04-24T04:48:41.429Z,2.30
2024-04-24T04:51:21.276Z,2.70
2024-04-24T04:54:09.748Z,2.10
2024-04-24T04:57:46.039Z,2.80
2024-04-24T05:01:34.873Z,2.60
2024-04-24T05:05:06.545Z,2.60
2024-04-24T05:08:55.519Z,2.80
2024-04-24T05:12:21.891Z,2.40
2024-04-24T05:15:30.974Z,2.90
2024-04-24T05:18:25.299Z,2.90
2024-04-24T05:21:01.463Z,2.30
2024-04-24T05:23:54.046Z,3.20
2024-04-24T05:27:04.303Z,2.00
2024-04-24T05:29:55.016Z,1.80
2024-04-24T05:32:44.026Z,1.60
2024-04-24T05:36:04.789Z,1.70
2024-04-24T05:39:06.375Z,1.60
2024-04-24T05:41:59.116Z,1.20
2024-04-24T05:44:39.143Z,1.20
2024-04-24T05:47:45.440Z,1.60
2024-04-24T05:50:27.082Z,1.40
2024-04-24T05:53:21.627Z,0.70
2024-04-24T05:56:26.291Z,0.60
2024-04-24T05:59:57.124Z,1.40
2024-04-24T06:03:11.194Z,0.80
2024-04-24T06:06:27.130Z,1.10
2024-04-24T06:09:39.790Z,1.00
2024-04-24T06:12:21.032Z,1.10
2024-04-24T06:15:41.347Z,0.80
2024-04-24T06:18:46.289Z,0.70
2024-04-24T06:22:11.422Z,1.10
2024-04-24T06:25:24.042Z,0.90
2024-04-24T06:28:24.224Z,1.10
2024-04-24T06:31:21.564Z,0.80
2024-04-24T06:34:50.291Z,1.50
2024-04-24T06:37:18.643Z,1.20
2024-04-24T06:40:09.870Z,1.30
2024-04-24T06:43:03.962Z,1.00
2024-04-24T06:46:08.183Z,0.70
2024-04-24T06:48:57.003Z,0.80
2024-04-24T06:51:32.568Z,1.00
2024-04-24T06:54:04.955Z,1.20
2024-04-24T06:56:52.303Z,0.80
2024-04-24T06:59:58.199Z,0.90
2024-04-24T07:02:47.829Z,0.90
2024-04-24T07:05:33.438Z,0.60
2024-04-24T07:08:13.498Z,1.10
2024-04-24T07:11:01.160Z,1.60
2024-04-24T07:13:34.817Z,0.60
2024-04-24T07:16:42.055Z,1.00
2024-04-24T07:19:23.926Z,0.90
2024-04-24T07:22:15.397Z,0.80
2024-04-24T07:25:00.225Z,1.10
2024-04-24T07:30:36.329Z,1.00
2024-04-24T07:33:49.020Z,0.60
2024-04-24T07:36:58.168Z,0.80
2024-04-24T07:39:43.748Z,0.80
2024-04-24T07:42:14.914Z,0.70
2024-04-24T07:45:01.808Z,0.70
2024-04-24T07:50:31.671Z,0.90
2024-04-24T07:53:23.504Z,1.00
2024-04-24T07:56:21.906Z,1.10
2024-04-24T07:59:05.393Z,1.50
2024-04-24T08:02:02.904Z,1.20
2024-04-24T08:05:40.619Z,1.20
2024-04-24T08:09:22.338Z,0.90
2024-04-24T08:12:26.989Z,0.90
2024-04-24T08:15:29.154Z,1.00
2024-04-24T08:18:00.441Z,0.90
2024-04-24T08:20:28.986Z,0.90
2024-04-24T08:22:57.376Z,1.20
2024-04-24T08:25:46.542Z,0.70
2024-04-24T08:28:18.505Z,0.80
2024-04-24T08:31:14.834Z,1.10
2024-04-24T08:34:10.136Z,0.70
2024-04-24T08:39:09.694Z,0.50
2024-04-24T08:41:45.648Z,0.70
2024-04-24T08:44:49.200Z,0.60
2024-04-24T08:47:43.331Z,0.60
2024-04-24T08:50:20.139Z,0.90
2024-04-24T08:53:03.802Z,0.90
2024-04-24T08:55:40.819Z,0.50
2024-04-24T08:58:19.493Z,0.80
2024-04-24T09:00:48.722Z,0.50
2024-04-24T09:03:52.837Z,0.80
2024-04-24T09:06:34.312Z,0.50
2024-04-24T09:09:03.394Z,0.40
2024-04-24T09:11:34.937Z,0.70
2024-04-24T09:14:07.556Z,0.80
2024-04-24T09:16:40.145Z,0.70
2024-04-24T09:19:08.832Z,0.50
2024-04-24T09:21:43.442Z,0.90
2024-04-24T09:24:23.153Z,0.60
2024-04-24T09:27:34.273Z,0.40
2024-04-24T09:30:15.347Z,0.40
2024-04-24T09:33:34.465Z,0.80
2024-04-24T09:36:14.946Z,0.90
2024-04-24T09:38:56.065Z,0.40
2024-04-24T09:41:48.711Z,0.40
2024-04-24T09:44:19.847Z,0.30
2024-04-24T09:46:52.469Z,0.30
2024-04-24T09:49:37.536Z,0.50
2024-04-24T09:52:30.693Z,0.60
2024-04-24T09:55:11.961Z,0.70
2024-04-24T09:58:00.734Z,0.40
2024-04-24T10:00:30.038Z,0.70
2024-04-24T10:03:47.250Z,0.70
2024-04-24T10:06:44.047Z,0.30
2024-04-24T10:09:27.569Z,0.50
2024-04-24T10:12:09.966Z,0.70
2024-04-24T10:17:32.834Z,0.70
2024-04-24T10:20:12.219Z,0.70
2024-04-24T10:22:55.563Z,0.70
2024-04-24T10:25:33.909Z,0.70
2024-04-24T10:28:04.987Z,0.50
2024-04-24T10:31:18.917Z,0.40
2024-04-24T10:34:33.770Z,0.40
2024-04-24T10:38:08.466Z,0.50
2024-04-24T10:41:12.749Z,0.90
2024-04-24T10:44:04.585Z,0.50
2024-04-24T10:46:33.585Z,0.30
2024-04-24T10:49:12.742Z,1.10
2024-04-24T10:51:55.753Z,1.10
2024-04-24T10:54:53.350Z,0.40
2024-04-24T10:57:48.223Z,0.80
2024-04-24T11:01:03.344Z,0.50
2024-04-24T11:03:52.123Z,0.90
2024-04-24T11:07:05.353Z,0.60
2024-04-24T11:10:12.366Z,0.70
2024-04-24T11:12:47.084Z,0.40
2024-04-24T11:15:21.272Z,0.40
2024-04-24T11:18:12.804Z,0.70
2024-04-24T11:20:42.205Z,0.60
2024-04-24T11:23:10.958Z,0.80
2024-04-24T11:25:58.475Z,0.70
2024-04-24T11:28:34.563Z,0.50
2024-04-24T11:31:12.379Z,0.50
2024-04-24T11:33:50.548Z,0.60
2024-04-24T11:36:20.030Z,0.90
2024-04-24T11:39:12.979Z,1.00
2024-04-24T11:41:50.790Z,0.90
2024-04-24T11:44:22.226Z,0.80
2024-04-24T11:47:00.159Z,0.90
2024-04-24T11:49:29.115Z,0.80
2024-04-24T11:52:20.181Z,0.60
2024-04-24T11:54:58.031Z,0.60
2024-04-24T11:57:39.209Z,0.70
2024-04-24T12:00:13.802Z,0.60
2024-04-24T12:02:44.947Z,0.70
2024-04-24T12:05:13.481Z,0.40
2024-04-24T12:08:34.318Z,0.70
2024-04-24T12:11:42.388Z,0.40
2024-04-24T12:14:19.104Z,0.60
2024-04-24T12:17:07.391Z,0.80
2024-04-24T12:19:54.146Z,0.50
2024-04-24T12:22:23.126Z,0.50
2024-04-24T12:24:53.951Z,0.50
2024-04-24T12:27:34.970Z,0.80
2024-04-24T12:30:07.503Z,0.30
2024-04-24T12:32:56.172Z,0.40
2024-04-24T12:35:40.077Z,0.60
2024-04-24T12:38:12.332Z,0.60
2024-04-24T12:41:16.998Z,0.30
2024-04-24T12:43:51.574Z,0.70
2024-04-24T12:46:19.693Z,0.40
2024-04-24T12:48:57.702Z,0.50
2024-04-24T12:51:46.153Z,0.40
2024-04-24T12:54:21.202Z,0.70
2024-04-24T12:56:54.374Z,0.40
2024-04-24T12:59:39.594Z,0.50
2024-04-24T13:02:14.919Z,0.70
2024-04-24T13:04:45.628Z,0.70
2024-04-24T13:07:17.460Z,0.80
2024-04-24T13:09:49.343Z,0.60
2024-04-24T13:12:23.043Z,0.80
2024-04-24T13:15:07.993Z,0.70
2024-04-24T13:17:45.407Z,0.50
2024-04-24T13:20:40.175Z,0.50
2024-04-24T13:24:11.922Z,0.50
2024-04-24T13:28:00.869Z,0.40
2024-04-24T13:31:05.559Z,0.70
2024-04-24T13:34:03.491Z,0.70
2024-04-24T13:36:37.236Z,0.50
2024-04-24T13:39:13.302Z,0.70
2024-04-24T13:41:52.438Z,0.40
2024-04-24T13:44:21.518Z,0.50
2024-04-24T13:47:01.059Z,0.80
2024-04-24T13:49:29.981Z,0.60
2024-04-24T13:52:29.888Z,0.50
2024-04-24T13:54:58.292Z,0.50
2024-04-24T13:57:36.163Z,0.40
2024-04-24T14:00:08.093Z,0.60
2024-04-24T14:02:54.317Z,0.70
2024-04-24T14:05:43.213Z,0.60
2024-04-24T14:08:59.866Z,1.00
2024-04-24T14:12:20.229Z,0.90
2024-04-24T14:15:10.478Z,1.90
2024-04-24T14:18:05.853Z,0.70
2024-04-24T14:20:37.217Z,0.80
2024-04-24T14:23:06.134Z,1.30
2024-04-24T14:25:35.659Z,0.90
2024-04-24T14:28:27.567Z,1.20
2024-04-24T14:31:04.496Z,0.60
2024-04-24T14:33:56.638Z,0.50
2024-04-24T14:36:45.248Z,0.60
2024-04-24T14:39:22.184Z,0.70
2024-04-24T14:42:26.046Z,0.80
2024-04-24T14:45:14.996Z,1.50
2024-04-24T14:50:35.149Z,0.60
2024-04-24T14:53:16.024Z,0.60
2024-04-24T14:55:58.495Z,0.80
2024-04-24T14:58:29.828Z,1.00
2024-04-24T15:01:09.823Z,0.90
2024-04-24T15:03:41.326Z,0.60
2024-04-24T15:06:39.534Z,0.80
2024-04-24T15:09:36.860Z,1.00
2024-04-24T15:13:04.572Z,1.40
2024-04-24T15:16:06.351Z,1.70
2024-04-24T15:18:35.246Z,1.00
2024-04-24T15:21:07.474Z,0.90
2024-04-24T15:24:07.952Z,1.10
2024-04-24T15:26:41.915Z,1.40
2024-04-24T15:33:03.845Z,1.60
2024-04-24T15:36:28.771Z,1.70
2024-04-24T15:39:11.505Z,1.10
2024-04-24T15:42:07.743Z,1.30
2024-04-24T15:45:37.545Z,0.90
2024-04-24T15:48:58.124Z,1.70
2024-04-24T15:51:43.104Z,1.50
2024-04-24T15:54:41.579Z,1.30
2024-04-24T15:57:16.482Z,1.00
2024-04-24T15:59:47.880Z,1.00
2024-04-24T16:02:49.531Z,1.20
2024-04-24T16:06:37.748Z,1.60
2024-04-24T16:10:26.630Z,0.90
2024-04-24T16:14:16.514Z,1.10
2024-04-24T16:17:36.331Z,1.70
2024-04-24T16:20:32.594Z,1.20
2024-04-24T16:24:08.100Z,1.10
2024-04-24T16:26:59.568Z,1.30
2024-04-24T16:30:03.752Z,1.70
2024-04-24T16:33:08.733Z,1.40
2024-04-24T16:36:17.459Z,1.60
2024-04-24T16:39:38.355Z,1.50
2024-04-24T16:42:47.517Z,2.20
2024-04-24T16:46:13.627Z,2.60
2024-04-24T16:48:54.815Z,2.80
2024-04-24T16:52:08.900Z,2.50
2024-04-24T16:55:04.219Z,2.00
2024-04-24T17:00:47.590Z,3.50
2024-04-24T17:03:29.680Z,3.50
2024-04-24T17:06:51.647Z,4.50
2024-04-24T17:09:47.335Z,3.60
2024-04-24T17:12:26.920Z,4.50
2024-04-24T17:15:02.124Z,3.90
2024-04-24T17:17:59.186Z,3.20
2024-04-24T17:21:09.574Z,3.70
2024-04-24T17:24:01.731Z,4.40
2024-04-24T17:27:10.530Z,5.80
2024-04-24T17:30:07.550Z,6.90
2024-04-24T17:33:37.620Z,6.10
2024-04-24T17:37:02.194Z,4.90
2024-04-24T17:40:14.453Z,4.70
2024-04-24T17:43:13.595Z,4.00
2024-04-24T17:47:02.427Z,3.60
2024-04-24T17:49:48.837Z,4.30
2024-04-24T17:53:04.801Z,4.10
2024-04-24T17:55:56.458Z,4.70
2024-04-24T17:59:40.482Z,4.50
2024-04-24T18:03:08.515Z,5.00
2024-04-24T18:06:47.752Z,5.80
2024-04-24T18:10:36.550Z,5.20
2024-04-24T18:14:08.324Z,4.90
2024-04-24T18:17:49.999Z,6.00
2024-04-24T18:21:32.596Z,4.40
2024-04-24T18:25:16.324Z,4.80
2024-04-24T18:29:05.472Z,5.40
2024-04-24T18:32:54.552Z,4.70
2024-04-24T18:36:36.581Z,4.50
2024-04-24T18:40:25.520Z,3.80
2024-04-24T18:44:07.651Z,5.70
2024-04-24T18:47:21.712Z,5.60
2024-04-24T18:50:54.004Z,4.90
2024-04-24T18:54:15.613Z,5.30
2024-04-24T18:57:37.073Z,7.00
2024-04-24T19:00:46.236Z,5.70
2024-04-24T19:04:12.557Z,7.10
2024-04-24T19:07:33.406Z,4.00
2024-04-24T19:10:59.729Z,7.10
2024-04-24T19:14:31.392Z,6.10
2024-04-24T19:17:53.946Z,8.30
2024-04-24T19:21:31.993Z,5.60
2024-04-24T19:24:51.097Z,6.50
2024-04-24T19:28:30.586Z,5.40
2024-04-24T19:32:18.457Z,8.20
2024-04-24T19:35:59.113Z,6.70
2024-04-24T19:39:40.181Z,5.40
2024-04-24T19:43:28.388Z,4.80
2024-04-24T19:47:17.596Z,6.40
2024-04-24T19:50:49.609Z,6.60
2024-04-24T19:54:13.099Z,4.90
2024-04-24T19:57:36.091Z,4.70
2024-04-24T20:01:16.476Z,6.30
2024-04-24T20:04:48.476Z,5.40
2024-04-24T20:08:20.377Z,5.50
2024-04-24T20:11:53.180Z,5.30
2024-04-24T20:15:33.840Z,5.40
2024-04-24T20:19:03.214Z,3.20
2024-04-24T20:22:45.362Z,3.10
2024-04-24T20:26:14.032Z,4.70
2024-04-24T20:29:22.639Z,4.70
2024-04-24T20:32:13.441Z,6.70
2024-04-24T20:35:41.012Z,3.70
2024-04-24T20:38:24.240Z,4.20
2024-04-24T20:41:42.355Z,3.80
2024-04-24T20:45:04.985Z,4.50
2024-04-24T20:48:47.268Z,6.30
2024-04-24T20:55:04.745Z,4.40
2024-04-24T20:58:16.339Z,4.40
2024-04-24T21:01:45.213Z,4.60
2024-04-24T21:05:17.098Z,4.10
2024-04-24T21:08:31.158Z,3.60
2024-04-24T21:12:03.067Z,3.90
2024-04-24T21:15:43.538Z,4.30
2024-04-24T21:18:57.652Z,4.20
2024-04-24T21:22:45.792Z,3.60
2024-04-24T21:26:29.748Z,5.30
2024-04-24T21:30:08.633Z,5.00
2024-04-24T21:33:38.827Z,4.90
2024-04-24T21:36:56.402Z,4.40
2024-04-24T21:40:28.373Z,4.50
2024-04-24T21:43:27.696Z,5.20
2024-04-24T21:47:01.836Z,4.70
2024-04-24T21:50:25.939Z,4.30
2024-04-24T21:53:35.109Z,5.70
2024-04-24T21:56:49.291Z,4.80
2024-04-24T22:00:18.111Z,6.30
2024-04-24T22:03:43.040Z,7.00
2024-04-24T22:07:05.164Z,6.60
2024-04-24T22:10:17.582Z,5.70
2024-04-24T22:13:39.835Z,5.00
2024-04-24T22:17:19.147Z,5.90
2024-04-24T22:20:54.991Z,6.40
2024-04-24T22:24:22.533Z,6.60
2024-04-24T22:28:05.573Z,6.10
2024-04-24T22:31:39.983Z,7.50
2024-04-24T22:35:08.938Z,5.30
2024-04-24T22:37:57.430Z,5.50
2024-04-24T22:41:45.197Z,7.40
2024-04-24T22:45:26.907Z,6.90
2024-04-24T22:48:41.313Z,7.20
2024-04-24T22:52:19.636Z,5.40
2024-04-24T22:56:08.470Z,6.30
2024-04-24T22:59:21.530Z,5.60
2024-04-24T23:02:21.236Z,6.70
2024-04-24T23:05:27.779Z,4.90
2024-04-24T23:09:06.756Z,4.20
2024-04-24T23:11:59.925Z,4.60
2024-04-24T23:14:56.868Z,5.30
2024-04-24T23:17:53.965Z,4.30
2024-04-24T23:21:10.226Z,5.10
2024-04-24T23:24:27.623Z,4.50
2024-04-24T23:28:25.285Z,5.70
2024-04-24T23:32:14.296Z,4.00
2024-04-24T23:35:36.224Z,4.60
2024-04-24T23:39:05.212Z,5.10
2024-04-24T23:42:42.748Z,3.70
2024-04-24T23:45:54.121Z,5.10
2024-04-24T23:49:28.369Z,4.60
2024-04-24T23:52:12.128Z,7.10
2024-04-24T23:55:41.934Z,6.00
2024-04-24T23:58:54.397Z,4.10
